Terminal Aerodrome Forecast
Issued by NWS Charleston, WV

Home | Current Version | Previous Version | Text Only | Print | Product List | Glossary On
Versions: 1 2 3 4 5 6 7 8 9 10 11 12 13 14 15 16 17 18 19 20 21 22 23 24 25 26
000
FTUS41 KRLX 071135 AAC
TAFPKB
TAF AMD
KPKB 071135Z 0712/0812 26005KT P6SM BKN035
      TEMPO 0712/0716 BKN015 OVC025
     FM071700 26005KT P6SM SCT050
     FM071800 26005KT P6SM SCT200
     FM080000 00000KT P6SM SCT110
     FM080400 00000KT P6SM BKN100=

USA.gov is the U.S. government's official web portal to all federal, state and local government web resources and services.